sensor_id;sensor_type;location;lat;lon;timestamp;P1;durP1;ratioP1;P2;durP2;ratioP2
18280;SDS011;9266;51.132;17.062;2022-07-22T00:00:03;7.43;;;6.50;;
18280;SDS011;9266;51.132;17.062;2022-07-22T00:02:32;10.25;;;7.18;;
18280;SDS011;9266;51.132;17.062;2022-07-22T00:04:59;7.55;;;6.82;;
18280;SDS011;9266;51.132;17.062;2022-07-22T00:07:25;8.70;;;6.85;;
18280;SDS011;9266;51.132;17.062;2022-07-22T00:09:52;7.45;;;6.20;;
18280;SDS011;9266;51.132;17.062;2022-07-22T00:12:19;7.30;;;6.55;;
18280;SDS011;9266;51.132;17.062;2022-07-22T00:14:48;7.45;;;6.75;;
18280;SDS011;9266;51.132;17.062;2022-07-22T00:17:15;8.07;;;6.93;;
18280;SDS011;9266;51.132;17.062;2022-07-22T00:19:41;10.23;;;6.80;;
18280;SDS011;9266;51.132;17.062;2022-07-22T00:22:09;8.02;;;7.03;;
18280;SDS011;9266;51.132;17.062;2022-07-22T00:24:36;7.82;;;6.90;;
18280;SDS011;9266;51.132;17.062;2022-07-22T00:27:03;9.15;;;7.20;;
18280;SDS011;9266;51.132;17.062;2022-07-22T00:29:30;9.00;;;7.22;;
18280;SDS011;9266;51.132;17.062;2022-07-22T00:31:58;7.82;;;7.03;;
18280;SDS011;9266;51.132;17.062;2022-07-22T00:34:25;8.60;;;7.07;;
18280;SDS011;9266;51.132;17.062;2022-07-22T00:36:52;7.88;;;7.10;;
18280;SDS011;9266;51.132;17.062;2022-07-22T00:39:19;8.27;;;6.82;;
18280;SDS011;9266;51.132;17.062;2022-07-22T00:41:47;9.77;;;6.75;;
18280;SDS011;9266;51.132;17.062;2022-07-22T00:44:14;8.60;;;7.60;;
18280;SDS011;9266;51.132;17.062;2022-07-22T00:46:41;8.13;;;7.32;;
18280;SDS011;9266;51.132;17.062;2022-07-22T00:49:10;7.72;;;6.95;;
18280;SDS011;9266;51.132;17.062;2022-07-22T00:51:37;8.50;;;7.60;;
18280;SDS011;9266;51.132;17.062;2022-07-22T00:54:04;7.45;;;6.75;;
18280;SDS011;9266;51.132;17.062;2022-07-22T00:56:31;7.63;;;6.80;;
18280;SDS011;9266;51.132;17.062;2022-07-22T00:58:59;8.15;;;7.35;;
18280;SDS011;9266;51.132;17.062;2022-07-22T01:01:31;8.07;;;7.28;;
18280;SDS011;9266;51.132;17.062;2022-07-22T01:03:58;7.57;;;6.88;;
18280;SDS011;9266;51.132;17.062;2022-07-22T01:06:27;8.80;;;7.78;;
18280;SDS011;9266;51.132;17.062;2022-07-22T01:08:54;9.27;;;6.78;;
18280;SDS011;9266;51.132;17.062;2022-07-22T01:11:22;9.05;;;7.78;;
18280;SDS011;9266;51.132;17.062;2022-07-22T01:13:49;7.40;;;6.70;;
18280;SDS011;9266;51.132;17.062;2022-07-22T01:16:17;8.88;;;7.53;;
18280;SDS011;9266;51.132;17.062;2022-07-22T01:18:45;10.65;;;7.88;;
18280;SDS011;9266;51.132;17.062;2022-07-22T01:21:14;8.77;;;7.40;;
18280;SDS011;9266;51.132;17.062;2022-07-22T01:23:42;8.90;;;7.23;;
18280;SDS011;9266;51.132;17.062;2022-07-22T01:26:09;8.40;;;7.57;;
18280;SDS011;9266;51.132;17.062;2022-07-22T01:28:36;7.57;;;6.82;;
18280;SDS011;9266;51.132;17.062;2022-07-22T01:31:04;8.13;;;7.32;;
18280;SDS011;9266;51.132;17.062;2022-07-22T01:33:33;8.17;;;7.37;;
18280;SDS011;9266;51.132;17.062;2022-07-22T01:36:00;8.60;;;7.73;;
18280;SDS011;9266;51.132;17.062;2022-07-22T01:38:29;8.03;;;7.33;;
18280;SDS011;9266;51.132;17.062;2022-07-22T01:40:56;8.23;;;7.07;;
18280;SDS011;9266;51.132;17.062;2022-07-22T01:43:23;8.13;;;7.32;;
18280;SDS011;9266;51.132;17.062;2022-07-22T01:45:51;9.27;;;8.23;;
18280;SDS011;9266;51.132;17.062;2022-07-22T01:48:18;7.97;;;7.28;;
18280;SDS011;9266;51.132;17.062;2022-07-22T01:50:49;10.27;;;8.00;;
18280;SDS011;9266;51.132;17.062;2022-07-22T01:53:16;8.00;;;7.20;;
18280;SDS011;9266;51.132;17.062;2022-07-22T01:55:45;8.40;;;7.50;;
18280;SDS011;9266;51.132;17.062;2022-07-22T01:58:12;10.07;;;7.50;;
18280;SDS011;9266;51.132;17.062;2022-07-22T02:00:39;8.67;;;7.77;;
18280;SDS011;9266;51.132;17.062;2022-07-22T02:03:07;9.07;;;8.27;;
18280;SDS011;9266;51.132;17.062;2022-07-22T02:05:35;10.40;;;8.37;;
18280;SDS011;9266;51.132;17.062;2022-07-22T02:08:04;8.83;;;7.93;;
18280;SDS011;9266;51.132;17.062;2022-07-22T02:10:33;9.20;;;8.20;;
18280;SDS011;9266;51.132;17.062;2022-07-22T02:13:02;8.20;;;7.50;;
18280;SDS011;9266;51.132;17.062;2022-07-22T02:15:30;8.93;;;8.13;;
18280;SDS011;9266;51.132;17.062;2022-07-22T02:17:57;8.67;;;7.77;;
18280;SDS011;9266;51.132;17.062;2022-07-22T02:20:24;12.27;;;8.67;;
18280;SDS011;9266;51.132;17.062;2022-07-22T02:22:51;9.00;;;8.10;;
18280;SDS011;9266;51.132;17.062;2022-07-22T02:25:18;9.60;;;8.67;;
18280;SDS011;9266;51.132;17.062;2022-07-22T02:27:48;10.83;;;9.03;;
18280;SDS011;9266;51.132;17.062;2022-07-22T02:30:17;11.07;;;8.47;;
18280;SDS011;9266;51.132;17.062;2022-07-22T02:32:44;9.77;;;8.77;;
18280;SDS011;9266;51.132;17.062;2022-07-22T02:35:11;10.73;;;8.80;;
18280;SDS011;9266;51.132;17.062;2022-07-22T02:37:38;10.23;;;8.57;;
18280;SDS011;9266;51.132;17.062;2022-07-22T02:40:05;9.63;;;8.47;;
18280;SDS011;9266;51.132;17.062;2022-07-22T02:42:34;11.67;;;9.07;;
18280;SDS011;9266;51.132;17.062;2022-07-22T02:45:01;10.20;;;9.20;;
18280;SDS011;9266;51.132;17.062;2022-07-22T02:47:31;10.00;;;8.95;;
18280;SDS011;9266;51.132;17.062;2022-07-22T02:49:58;11.23;;;8.73;;
18280;SDS011;9266;51.132;17.062;2022-07-22T02:52:25;9.68;;;8.68;;
18280;SDS011;9266;51.132;17.062;2022-07-22T02:54:52;11.27;;;8.83;;
18280;SDS011;9266;51.132;17.062;2022-07-22T03:00:41;10.35;;;9.30;;
18280;SDS011;9266;51.132;17.062;2022-07-22T03:03:10;10.03;;;9.00;;
18280;SDS011;9266;51.132;17.062;2022-07-22T03:05:37;11.80;;;9.88;;
18280;SDS011;9266;51.132;17.062;2022-07-22T03:08:04;11.55;;;8.65;;
18280;SDS011;9266;51.132;17.062;2022-07-22T03:10:30;10.40;;;9.23;;
18280;SDS011;9266;51.132;17.062;2022-07-22T03:12:57;11.30;;;9.52;;
18280;SDS011;9266;51.132;17.062;2022-07-22T03:15:25;14.93;;;10.10;;
18280;SDS011;9266;51.132;17.062;2022-07-22T03:17:51;17.73;;;11.17;;
18280;SDS011;9266;51.132;17.062;2022-07-22T03:20:20;14.30;;;11.83;;
18280;SDS011;9266;51.132;17.062;2022-07-22T03:22:47;14.37;;;11.30;;
18280;SDS011;9266;51.132;17.062;2022-07-22T03:25:14;13.80;;;11.17;;
18280;SDS011;9266;51.132;17.062;2022-07-22T03:27:41;15.97;;;12.10;;
18280;SDS011;9266;51.132;17.062;2022-07-22T03:30:08;12.67;;;11.37;;
18280;SDS011;9266;51.132;17.062;2022-07-22T03:32:36;19.30;;;13.07;;
18280;SDS011;9266;51.132;17.062;2022-07-22T03:35:03;15.43;;;13.83;;
18280;SDS011;9266;51.132;17.062;2022-07-22T03:37:32;17.83;;;13.97;;
18280;SDS011;9266;51.132;17.062;2022-07-22T03:39:59;16.13;;;14.50;;
18280;SDS011;9266;51.132;17.062;2022-07-22T03:42:26;16.97;;;14.60;;
18280;SDS011;9266;51.132;17.062;2022-07-22T03:44:53;16.97;;;14.53;;
18280;SDS011;9266;51.132;17.062;2022-07-22T03:47:22;16.93;;;15.07;;
18280;SDS011;9266;51.132;17.062;2022-07-22T03:49:49;19.63;;;15.93;;
18280;SDS011;9266;51.132;17.062;2022-07-22T03:55:43;18.33;;;16.43;;
18280;SDS011;9266;51.132;17.062;2022-07-22T03:58:24;20.03;;;16.50;;
18280;SDS011;9266;51.132;17.062;2022-07-22T04:01:05;20.70;;;15.90;;
18280;SDS011;9266;51.132;17.062;2022-07-22T04:03:46;19.83;;;16.50;;
18280;SDS011;9266;51.132;17.062;2022-07-22T04:06:27;17.80;;;16.03;;
18280;SDS011;9266;51.132;17.062;2022-07-22T04:09:08;19.07;;;16.07;;
18280;SDS011;9266;51.132;17.062;2022-07-22T06:50:27;9.63;;;8.63;;
18280;SDS011;9266;51.132;17.062;2022-07-22T06:52:54;11.18;;;9.38;;
18280;SDS011;9266;51.132;17.062;2022-07-22T06:55:21;11.38;;;9.85;;
18280;SDS011;9266;51.132;17.062;2022-07-22T06:57:48;13.60;;;10.25;;
18280;SDS011;9266;51.132;17.062;2022-07-22T07:00:15;11.60;;;10.38;;
18280;SDS011;9266;51.132;17.062;2022-07-22T07:02:44;12.52;;;11.00;;
18280;SDS011;9266;51.132;17.062;2022-07-22T07:05:12;12.88;;;11.57;;
18280;SDS011;9266;51.132;17.062;2022-07-22T07:07:40;13.40;;;11.43;;
18280;SDS011;9266;51.132;17.062;2022-07-22T07:10:08;13.15;;;11.75;;
18280;SDS011;9266;51.132;17.062;2022-07-22T07:12:37;12.85;;;11.18;;
18280;SDS011;9266;51.132;17.062;2022-07-22T07:15:05;14.07;;;10.82;;
18280;SDS011;9266;51.132;17.062;2022-07-22T07:17:32;14.55;;;10.10;;
18280;SDS011;9266;51.132;17.062;2022-07-22T07:20:00;13.75;;;11.48;;
18280;SDS011;9266;51.132;17.062;2022-07-22T07:22:27;13.98;;;11.13;;
18280;SDS011;9266;51.132;17.062;2022-07-22T07:24:55;12.93;;;9.73;;
18280;SDS011;9266;51.132;17.062;2022-07-22T07:27:22;11.70;;;10.50;;
18280;SDS011;9266;51.132;17.062;2022-07-22T07:29:50;12.98;;;10.75;;
18280;SDS011;9266;51.132;17.062;2022-07-22T07:32:17;11.30;;;9.50;;
18280;SDS011;9266;51.132;17.062;2022-07-22T07:34:44;13.82;;;10.00;;
18280;SDS011;9266;51.132;17.062;2022-07-22T07:37:11;11.90;;;10.73;;
18280;SDS011;9266;51.132;17.062;2022-07-22T07:39:38;13.82;;;11.70;;
18280;SDS011;9266;51.132;17.062;2022-07-22T07:42:07;11.60;;;10.38;;
18280;SDS011;9266;51.132;17.062;2022-07-22T07:44:34;12.80;;;10.98;;
18280;SDS011;9266;51.132;17.062;2022-07-22T07:47:01;12.43;;;10.60;;
18280;SDS011;9266;51.132;17.062;2022-07-22T07:49:29;12.63;;;10.27;;
18280;SDS011;9266;51.132;17.062;2022-07-22T07:51:56;13.73;;;10.95;;
18280;SDS011;9266;51.132;17.062;2022-07-22T07:54:23;12.73;;;11.40;;
18280;SDS011;9266;51.132;17.062;2022-07-22T07:56:50;13.57;;;10.32;;
18280;SDS011;9266;51.132;17.062;2022-07-22T07:59:18;11.30;;;10.20;;
18280;SDS011;9266;51.132;17.062;2022-07-22T08:01:45;10.90;;;9.80;;
18280;SDS011;9266;51.132;17.062;2022-07-22T08:04:13;12.23;;;9.85;;
18280;SDS011;9266;51.132;17.062;2022-07-22T08:06:40;10.98;;;9.68;;
18280;SDS011;9266;51.132;17.062;2022-07-22T08:09:07;12.65;;;10.07;;
18280;SDS011;9266;51.132;17.062;2022-07-22T08:11:35;11.18;;;9.98;;
18280;SDS011;9266;51.132;17.062;2022-07-22T08:14:02;12.93;;;10.35;;
18280;SDS011;9266;51.132;17.062;2022-07-22T08:16:31;11.35;;;9.45;;
18280;SDS011;9266;51.132;17.062;2022-07-22T08:18:58;12.18;;;10.30;;
18280;SDS011;9266;51.132;17.062;2022-07-22T08:21:25;10.65;;;9.45;;
18280;SDS011;9266;51.132;17.062;2022-07-22T08:23:52;10.18;;;9.18;;
18280;SDS011;9266;51.132;17.062;2022-07-22T08:26:19;10.85;;;9.75;;
18280;SDS011;9266;51.132;17.062;2022-07-22T08:28:46;14.13;;;10.18;;
18280;SDS011;9266;51.132;17.062;2022-07-22T08:31:13;11.63;;;9.95;;
18280;SDS011;9266;51.132;17.062;2022-07-22T08:33:42;9.95;;;9.05;;
18280;SDS011;9266;51.132;17.062;2022-07-22T08:36:09;9.75;;;8.85;;
18280;SDS011;9266;51.132;17.062;2022-07-22T08:38:36;10.25;;;9.15;;
18280;SDS011;9266;51.132;17.062;2022-07-22T08:41:04;10.88;;;9.60;;
18280;SDS011;9266;51.132;17.062;2022-07-22T08:43:32;10.00;;;8.98;;
18280;SDS011;9266;51.132;17.062;2022-07-22T08:46:02;10.35;;;9.35;;
18280;SDS011;9266;51.132;17.062;2022-07-22T08:48:29;10.85;;;9.80;;
18280;SDS011;9266;51.132;17.062;2022-07-22T08:50:58;10.75;;;9.02;;
18280;SDS011;9266;51.132;17.062;2022-07-22T08:53:25;10.13;;;9.13;;
18280;SDS011;9266;51.132;17.062;2022-07-22T08:55:52;10.45;;;9.38;;
18280;SDS011;9266;51.132;17.062;2022-07-22T08:58:19;11.45;;;9.45;;
18280;SDS011;9266;51.132;17.062;2022-07-22T09:00:46;10.82;;;8.98;;
18280;SDS011;9266;51.132;17.062;2022-07-22T09:03:30;11.07;;;9.30;;
18280;SDS011;9266;51.132;17.062;2022-07-22T09:05:59;9.90;;;8.90;;
18280;SDS011;9266;51.132;17.062;2022-07-22T09:08:36;11.30;;;10.20;;
18280;SDS011;9266;51.132;17.062;2022-07-22T09:11:17;10.77;;;9.68;;
18280;SDS011;9266;51.132;17.062;2022-07-22T09:13:45;10.45;;;9.45;;
18280;SDS011;9266;51.132;17.062;2022-07-22T09:16:13;11.40;;;10.30;;
18280;SDS011;9266;51.132;17.062;2022-07-22T09:18:44;12.07;;;10.30;;
18280;SDS011;9266;51.132;17.062;2022-07-22T09:21:13;11.35;;;10.27;;
18280;SDS011;9266;51.132;17.062;2022-07-22T09:23:41;12.10;;;9.93;;
18280;SDS011;9266;51.132;17.062;2022-07-22T09:26:09;17.08;;;10.45;;
18280;SDS011;9266;51.132;17.062;2022-07-22T09:28:55;10.82;;;9.73;;
18280;SDS011;9266;51.132;17.062;2022-07-22T09:31:23;12.07;;;10.20;;
18280;SDS011;9266;51.132;17.062;2022-07-22T09:33:51;13.05;;;9.00;;
18280;SDS011;9266;51.132;17.062;2022-07-22T09:36:21;10.93;;;9.50;;
18280;SDS011;9266;51.132;17.062;2022-07-22T09:38:48;11.27;;;9.55;;
18280;SDS011;9266;51.132;17.062;2022-07-22T09:41:15;9.77;;;8.77;;
18280;SDS011;9266;51.132;17.062;2022-07-22T09:43:42;13.23;;;8.73;;
18280;SDS011;9266;51.132;17.062;2022-07-22T09:46:10;9.35;;;8.50;;
18280;SDS011;9266;51.132;17.062;2022-07-22T09:48:38;9.10;;;8.15;;
18280;SDS011;9266;51.132;17.062;2022-07-22T09:51:06;8.68;;;7.78;;
18280;SDS011;9266;51.132;17.062;2022-07-22T09:53:36;12.30;;;8.48;;
18280;SDS011;9266;51.132;17.062;2022-07-22T09:56:04;8.77;;;7.90;;
18280;SDS011;9266;51.132;17.062;2022-07-22T09:58:32;11.48;;;9.75;;
18280;SDS011;9266;51.132;17.062;2022-07-22T10:01:00;9.50;;;8.57;;
18280;SDS011;9266;51.132;17.062;2022-07-22T10:03:32;10.63;;;9.02;;
18280;SDS011;9266;51.132;17.062;2022-07-22T10:06:03;9.15;;;7.93;;
18280;SDS011;9266;51.132;17.062;2022-07-22T10:08:31;9.00;;;7.82;;
18280;SDS011;9266;51.132;17.062;2022-07-22T10:11:01;9.57;;;8.60;;
18280;SDS011;9266;51.132;17.062;2022-07-22T10:13:29;9.60;;;7.93;;
18280;SDS011;9266;51.132;17.062;2022-07-22T10:15:57;10.05;;;8.32;;
18280;SDS011;9266;51.132;17.062;2022-07-22T10:21:02;12.48;;;8.45;;
18280;SDS011;9266;51.132;17.062;2022-07-22T10:23:32;10.55;;;8.60;;
18280;SDS011;9266;51.132;17.062;2022-07-22T10:26:01;10.38;;;8.38;;
18280;SDS011;9266;51.132;17.062;2022-07-22T10:28:30;9.13;;;8.30;;
18280;SDS011;9266;51.132;17.062;2022-07-22T10:33:53;9.23;;;7.97;;
18280;SDS011;9266;51.132;17.062;2022-07-22T10:36:31;8.63;;;7.82;;
18280;SDS011;9266;51.132;17.062;2022-07-22T10:39:03;9.85;;;7.75;;
18280;SDS011;9266;51.132;17.062;2022-07-22T10:41:34;8.48;;;7.35;;
18280;SDS011;9266;51.132;17.062;2022-07-22T10:44:03;9.23;;;8.00;;
18280;SDS011;9266;51.132;17.062;2022-07-22T10:46:50;10.95;;;8.20;;
18280;SDS011;9266;51.132;17.062;2022-07-22T10:49:19;9.23;;;8.02;;
18280;SDS011;9266;51.132;17.062;2022-07-22T10:57:48;10.13;;;8.02;;
18280;SDS011;9266;51.132;17.062;2022-07-22T11:00:16;10.18;;;7.70;;
18280;SDS011;9266;51.132;17.062;2022-07-22T11:02:43;10.75;;;8.13;;
18280;SDS011;9266;51.132;17.062;2022-07-22T11:05:10;7.88;;;7.07;;
18280;SDS011;9266;51.132;17.062;2022-07-22T11:07:40;8.13;;;7.43;;
18280;SDS011;9266;51.132;17.062;2022-07-22T11:10:08;7.50;;;6.80;;
18280;SDS011;9266;51.132;17.062;2022-07-22T11:12:36;8.52;;;7.13;;
18280;SDS011;9266;51.132;17.062;2022-07-22T11:15:06;7.70;;;6.30;;
18280;SDS011;9266;51.132;17.062;2022-07-22T11:17:35;7.75;;;7.05;;
18280;SDS011;9266;51.132;17.062;2022-07-22T11:20:03;8.95;;;7.47;;
18280;SDS011;9266;51.132;17.062;2022-07-22T11:22:32;7.90;;;6.90;;
18280;SDS011;9266;51.132;17.062;2022-07-22T11:24:59;7.97;;;6.03;;
18280;SDS011;9266;51.132;17.062;2022-07-22T11:27:28;7.15;;;6.15;;
18280;SDS011;9266;51.132;17.062;2022-07-22T11:29:55;8.30;;;6.00;;
18280;SDS011;9266;51.132;17.062;2022-07-22T11:32:25;7.30;;;6.18;;
18280;SDS011;9266;51.132;17.062;2022-07-22T11:34:53;7.95;;;6.80;;
18280;SDS011;9266;51.132;17.062;2022-07-22T11:37:21;7.47;;;6.15;;
18280;SDS011;9266;51.132;17.062;2022-07-22T11:39:49;9.40;;;6.82;;
18280;SDS011;9266;51.132;17.062;2022-07-22T11:42:16;6.88;;;6.15;;
18280;SDS011;9266;51.132;17.062;2022-07-22T11:44:46;8.15;;;5.97;;
18280;SDS011;9266;51.132;17.062;2022-07-22T11:47:13;6.88;;;5.68;;
18280;SDS011;9266;51.132;17.062;2022-07-22T11:49:44;6.63;;;6.03;;
18280;SDS011;9266;51.132;17.062;2022-07-22T11:52:12;6.60;;;5.85;;
18280;SDS011;9266;51.132;17.062;2022-07-22T11:54:40;6.40;;;5.57;;
18280;SDS011;9266;51.132;17.062;2022-07-22T11:57:08;6.47;;;5.82;;
18280;SDS011;9266;51.132;17.062;2022-07-22T11:59:35;9.00;;;5.60;;
18280;SDS011;9266;51.132;17.062;2022-07-22T12:02:03;6.10;;;5.28;;
18280;SDS011;9266;51.132;17.062;2022-07-22T12:04:31;7.07;;;5.60;;
18280;SDS011;9266;51.132;17.062;2022-07-22T12:07:01;6.80;;;6.10;;
18280;SDS011;9266;51.132;17.062;2022-07-22T12:09:30;6.40;;;5.70;;
18280;SDS011;9266;51.132;17.062;2022-07-22T12:11:59;6.32;;;5.50;;
18280;SDS011;9266;51.132;17.062;2022-07-22T12:14:29;8.60;;;5.38;;
18280;SDS011;9266;51.132;17.062;2022-07-22T12:16:57;6.72;;;5.75;;
18280;SDS011;9266;51.132;17.062;2022-07-22T12:19:26;6.75;;;5.35;;
18280;SDS011;9266;51.132;17.062;2022-07-22T12:21:56;6.22;;;5.63;;
18280;SDS011;9266;51.132;17.062;2022-07-22T12:24:27;8.02;;;5.80;;
18280;SDS011;9266;51.132;17.062;2022-07-22T12:26:56;6.68;;;5.75;;
18280;SDS011;9266;51.132;17.062;2022-07-22T12:29:30;5.97;;;5.47;;
18280;SDS011;9266;51.132;17.062;2022-07-22T12:32:08;6.05;;;5.55;;
18280;SDS011;9266;51.132;17.062;2022-07-22T12:34:37;6.32;;;5.70;;
18280;SDS011;9266;51.132;17.062;2022-07-22T12:37:15;6.45;;;5.22;;
18280;SDS011;9266;51.132;17.062;2022-07-22T12:39:55;6.18;;;5.57;;
18280;SDS011;9266;51.132;17.062;2022-07-22T12:42:24;7.03;;;5.40;;
18280;SDS011;9266;51.132;17.062;2022-07-22T12:44:53;8.73;;;6.03;;
18280;SDS011;9266;51.132;17.062;2022-07-22T12:47:46;7.65;;;6.15;;
18280;SDS011;9266;51.132;17.062;2022-07-22T12:50:25;5.95;;;5.45;;
18280;SDS011;9266;51.132;17.062;2022-07-22T12:52:55;7.60;;;6.72;;
18280;SDS011;9266;51.132;17.062;2022-07-22T12:55:25;7.97;;;5.70;;
18280;SDS011;9266;51.132;17.062;2022-07-22T12:57:52;6.43;;;5.50;;
18280;SDS011;9266;51.132;17.062;2022-07-22T13:00:20;7.70;;;5.93;;
18280;SDS011;9266;51.132;17.062;2022-07-22T13:02:49;6.15;;;5.55;;
18280;SDS011;9266;51.132;17.062;2022-07-22T13:05:17;6.72;;;6.13;;
18280;SDS011;9266;51.132;17.062;2022-07-22T13:07:44;5.90;;;5.40;;
18280;SDS011;9266;51.132;17.062;2022-07-22T13:10:12;6.40;;;5.63;;
18280;SDS011;9266;51.132;17.062;2022-07-22T13:12:42;6.95;;;5.82;;
18280;SDS011;9266;51.132;17.062;2022-07-22T13:15:09;5.60;;;5.05;;
18280;SDS011;9266;51.132;17.062;2022-07-22T13:17:36;5.65;;;4.95;;
18280;SDS011;9266;51.132;17.062;2022-07-22T13:20:06;6.05;;;5.45;;
18280;SDS011;9266;51.132;17.062;2022-07-22T13:22:35;7.43;;;5.30;;
18280;SDS011;9266;51.132;17.062;2022-07-22T13:25:04;5.68;;;5.07;;
18280;SDS011;9266;51.132;17.062;2022-07-22T13:27:33;6.15;;;5.55;;
18280;SDS011;9266;51.132;17.062;2022-07-22T13:30:01;5.82;;;5.22;;
18280;SDS011;9266;51.132;17.062;2022-07-22T13:32:28;6.35;;;5.72;;
18280;SDS011;9266;51.132;17.062;2022-07-22T13:34:55;7.60;;;5.63;;
18280;SDS011;9266;51.132;17.062;2022-07-22T13:37:23;6.28;;;5.57;;
18280;SDS011;9266;51.132;17.062;2022-07-22T13:39:50;8.70;;;5.45;;
18280;SDS011;9266;51.132;17.062;2022-07-22T13:42:17;6.88;;;5.70;;
18280;SDS011;9266;51.132;17.062;2022-07-22T13:44:45;6.32;;;5.72;;
18280;SDS011;9266;51.132;17.062;2022-07-22T13:47:14;6.05;;;5.45;;
18280;SDS011;9266;51.132;17.062;2022-07-22T13:49:41;6.35;;;5.75;;
18280;SDS011;9266;51.132;17.062;2022-07-22T13:52:11;6.93;;;5.75;;
18280;SDS011;9266;51.132;17.062;2022-07-22T13:54:39;6.95;;;5.70;;
18280;SDS011;9266;51.132;17.062;2022-07-22T13:57:06;6.32;;;5.65;;
18280;SDS011;9266;51.132;17.062;2022-07-22T13:59:35;6.93;;;5.53;;
18280;SDS011;9266;51.132;17.062;2022-07-22T14:02:02;6.15;;;5.55;;
18280;SDS011;9266;51.132;17.062;2022-07-22T14:04:30;7.57;;;5.68;;
18280;SDS011;9266;51.132;17.062;2022-07-22T14:06:58;7.85;;;5.78;;
18280;SDS011;9266;51.132;17.062;2022-07-22T14:09:25;8.45;;;5.65;;
18280;SDS011;9266;51.132;17.062;2022-07-22T14:11:52;10.13;;;6.05;;
18280;SDS011;9266;51.132;17.062;2022-07-22T14:14:21;7.72;;;5.75;;
18280;SDS011;9266;51.132;17.062;2022-07-22T14:16:48;6.03;;;5.32;;
18280;SDS011;9266;51.132;17.062;2022-07-22T14:19:16;7.95;;;6.07;;
18280;SDS011;9266;51.132;17.062;2022-07-22T14:21:45;7.65;;;5.90;;
18280;SDS011;9266;51.132;17.062;2022-07-22T14:24:12;6.95;;;6.22;;
18280;SDS011;9266;51.132;17.062;2022-07-22T14:26:39;5.68;;;5.07;;
18280;SDS011;9266;51.132;17.062;2022-07-22T14:29:07;6.13;;;5.45;;
18280;SDS011;9266;51.132;17.062;2022-07-22T14:31:35;8.18;;;5.18;;
18280;SDS011;9266;51.132;17.062;2022-07-22T14:34:02;8.07;;;5.50;;
18280;SDS011;9266;51.132;17.062;2022-07-22T14:36:29;8.07;;;5.85;;
18280;SDS011;9266;51.132;17.062;2022-07-22T14:38:58;6.13;;;5.53;;
18280;SDS011;9266;51.132;17.062;2022-07-22T14:41:25;6.32;;;5.60;;
18280;SDS011;9266;51.132;17.062;2022-07-22T14:43:52;6.38;;;5.78;;
18280;SDS011;9266;51.132;17.062;2022-07-22T14:46:19;6.75;;;6.15;;
18280;SDS011;9266;51.132;17.062;2022-07-22T14:48:47;6.80;;;5.35;;
18280;SDS011;9266;51.132;17.062;2022-07-22T14:51:18;6.00;;;5.38;;
18280;SDS011;9266;51.132;17.062;2022-07-22T14:53:46;6.32;;;5.72;;
18280;SDS011;9266;51.132;17.062;2022-07-22T14:56:14;6.82;;;6.13;;
18280;SDS011;9266;51.132;17.062;2022-07-22T14:58:41;6.53;;;5.93;;
18280;SDS011;9266;51.132;17.062;2022-07-22T15:01:08;8.30;;;5.65;;
18280;SDS011;9266;51.132;17.062;2022-07-22T15:03:37;7.10;;;5.90;;
18280;SDS011;9266;51.132;17.062;2022-07-22T15:06:04;8.05;;;5.78;;
18280;SDS011;9266;51.132;17.062;2022-07-22T15:08:32;6.25;;;5.75;;
18280;SDS011;9266;51.132;17.062;2022-07-22T15:11:02;8.13;;;6.18;;
18280;SDS011;9266;51.132;17.062;2022-07-22T15:13:30;6.43;;;5.45;;
18280;SDS011;9266;51.132;17.062;2022-07-22T15:16:01;6.40;;;5.75;;
18280;SDS011;9266;51.132;17.062;2022-07-22T15:18:29;7.07;;;5.90;;
18280;SDS011;9266;51.132;17.062;2022-07-22T15:20:56;7.03;;;5.88;;
18280;SDS011;9266;51.132;17.062;2022-07-22T15:23:23;7.57;;;5.88;;
18280;SDS011;9266;51.132;17.062;2022-07-22T15:25:53;6.60;;;5.93;;
18280;SDS011;9266;51.132;17.062;2022-07-22T15:28:20;7.10;;;6.28;;
18280;SDS011;9266;51.132;17.062;2022-07-22T15:30:48;7.60;;;5.97;;
18280;SDS011;9266;51.132;17.062;2022-07-22T15:33:16;8.07;;;6.35;;
18280;SDS011;9266;51.132;17.062;2022-07-22T15:35:43;9.68;;;5.93;;
18280;SDS011;9266;51.132;17.062;2022-07-22T15:38:11;9.98;;;5.72;;
18280;SDS011;9266;51.132;17.062;2022-07-22T15:40:39;6.82;;;5.35;;
18280;SDS011;9266;51.132;17.062;2022-07-22T15:43:06;8.93;;;6.00;;
18280;SDS011;9266;51.132;17.062;2022-07-22T15:45:34;6.43;;;5.78;;
18280;SDS011;9266;51.132;17.062;2022-07-22T15:48:03;6.45;;;5.80;;
18280;SDS011;9266;51.132;17.062;2022-07-22T15:50:31;6.50;;;5.90;;
18280;SDS011;9266;51.132;17.062;2022-07-22T15:52:58;8.50;;;5.80;;
18280;SDS011;9266;51.132;17.062;2022-07-22T15:55:25;6.13;;;5.63;;
18280;SDS011;9266;51.132;17.062;2022-07-22T15:57:54;6.43;;;5.90;;
18280;SDS011;9266;51.132;17.062;2022-07-22T16:00:39;7.20;;;6.47;;
18280;SDS011;9266;51.132;17.062;2022-07-22T16:03:07;9.23;;;6.20;;
18280;SDS011;9266;51.132;17.062;2022-07-22T16:05:34;7.47;;;6.05;;
18280;SDS011;9266;51.132;17.062;2022-07-22T16:08:02;7.65;;;5.93;;
18280;SDS011;9266;51.132;17.062;2022-07-22T16:10:29;10.20;;;8.50;;
18280;SDS011;9266;51.132;17.062;2022-07-22T16:12:56;7.78;;;6.22;;
18280;SDS011;9266;51.132;17.062;2022-07-22T16:15:23;6.28;;;5.65;;
18280;SDS011;9266;51.132;17.062;2022-07-22T16:17:50;9.65;;;5.88;;
18280;SDS011;9266;51.132;17.062;2022-07-22T16:20:19;6.90;;;6.25;;
18280;SDS011;9266;51.132;17.062;2022-07-22T16:22:47;6.72;;;5.80;;
18280;SDS011;9266;51.132;17.062;2022-07-22T16:25:15;7.07;;;6.38;;
18280;SDS011;9266;51.132;17.062;2022-07-22T16:27:42;6.45;;;5.85;;
18280;SDS011;9266;51.132;17.062;2022-07-22T16:30:10;6.70;;;6.10;;
18280;SDS011;9266;51.132;17.062;2022-07-22T16:32:39;8.95;;;6.10;;
18280;SDS011;9266;51.132;17.062;2022-07-22T16:35:06;6.63;;;6.03;;
18280;SDS011;9266;51.132;17.062;2022-07-22T16:37:35;7.47;;;6.18;;
18280;SDS011;9266;51.132;17.062;2022-07-22T16:40:03;6.75;;;6.05;;
18280;SDS011;9266;51.132;17.062;2022-07-22T16:42:32;6.28;;;5.68;;
18280;SDS011;9266;51.132;17.062;2022-07-22T16:45:01;9.80;;;5.88;;
18280;SDS011;9266;51.132;17.062;2022-07-22T16:47:29;8.00;;;6.80;;
18280;SDS011;9266;51.132;17.062;2022-07-22T16:49:56;6.60;;;5.90;;
18280;SDS011;9266;51.132;17.062;2022-07-22T16:52:24;7.22;;;6.38;;
18280;SDS011;9266;51.132;17.062;2022-07-22T16:54:52;12.60;;;6.20;;
18280;SDS011;9266;51.132;17.062;2022-07-22T16:57:20;7.63;;;6.18;;
18280;SDS011;9266;51.132;17.062;2022-07-22T16:59:47;6.75;;;6.05;;
18280;SDS011;9266;51.132;17.062;2022-07-22T17:02:15;6.70;;;6.00;;
18280;SDS011;9266;51.132;17.062;2022-07-22T17:04:42;11.55;;;7.53;;
18280;SDS011;9266;51.132;17.062;2022-07-22T17:07:09;8.05;;;6.75;;
18280;SDS011;9266;51.132;17.062;2022-07-22T17:09:36;6.85;;;6.13;;
18280;SDS011;9266;51.132;17.062;2022-07-22T17:12:06;9.73;;;6.43;;
18280;SDS011;9266;51.132;17.062;2022-07-22T17:14:33;7.13;;;6.43;;
18280;SDS011;9266;51.132;17.062;2022-07-22T17:17:02;6.43;;;5.65;;
18280;SDS011;9266;51.132;17.062;2022-07-22T17:19:29;6.65;;;5.60;;
18280;SDS011;9266;51.132;17.062;2022-07-22T17:21:57;7.50;;;6.00;;
18280;SDS011;9266;51.132;17.062;2022-07-22T17:24:25;6.43;;;5.82;;
18280;SDS011;9266;51.132;17.062;2022-07-22T17:26:52;7.18;;;6.18;;
18280;SDS011;9266;51.132;17.062;2022-07-22T17:29:21;11.45;;;6.28;;
18280;SDS011;9266;51.132;17.062;2022-07-22T17:31:48;6.30;;;5.70;;
18280;SDS011;9266;51.132;17.062;2022-07-22T17:34:19;7.80;;;6.05;;
18280;SDS011;9266;51.132;17.062;2022-07-22T17:36:51;11.57;;;6.30;;
18280;SDS011;9266;51.132;17.062;2022-07-22T17:39:18;8.13;;;6.50;;
18280;SDS011;9266;51.132;17.062;2022-07-22T17:41:46;6.82;;;6.10;;
18280;SDS011;9266;51.132;17.062;2022-07-22T17:44:13;7.40;;;6.57;;